sensor_id;sensor_type;location;lat;lon;timestamp;P1;durP1;ratioP1;P2;durP2;ratioP2
61085;SDS011;46967;48.876;2.136;2023-01-20T00:01:21;16.00;;;8.93;;
61085;SDS011;46967;48.876;2.136;2023-01-20T00:03:47;12.57;;;7.85;;
61085;SDS011;46967;48.876;2.136;2023-01-20T00:06:14;12.82;;;8.45;;
61085;SDS011;46967;48.876;2.136;2023-01-20T00:08:40;12.23;;;8.20;;
61085;SDS011;46967;48.876;2.136;2023-01-20T00:11:07;10.60;;;7.60;;
61085;SDS011;46967;48.876;2.136;2023-01-20T00:13:34;15.45;;;9.45;;
61085;SDS011;46967;48.876;2.136;2023-01-20T00:16:03;14.50;;;9.30;;
61085;SDS011;46967;48.876;2.136;2023-01-20T00:20:55;15.48;;;8.93;;
61085;SDS011;46967;48.876;2.136;2023-01-20T00:23:21;14.57;;;8.75;;
61085;SDS011;46967;48.876;2.136;2023-01-20T00:25:46;14.68;;;9.25;;
61085;SDS011;46967;48.876;2.136;2023-01-20T00:28:11;14.95;;;9.48;;
61085;SDS011;46967;48.876;2.136;2023-01-20T00:30:37;13.30;;;8.32;;
61085;SDS011;46967;48.876;2.136;2023-01-20T00:33:02;14.63;;;9.30;;
61085;SDS011;46967;48.876;2.136;2023-01-20T00:35:27;15.82;;;8.82;;
61085;SDS011;46967;48.876;2.136;2023-01-20T00:37:53;14.13;;;8.80;;
61085;SDS011;46967;48.876;2.136;2023-01-20T00:40:18;15.50;;;9.98;;
61085;SDS011;46967;48.876;2.136;2023-01-20T00:42:43;14.15;;;8.73;;
61085;SDS011;46967;48.876;2.136;2023-01-20T00:45:09;13.00;;;8.90;;
61085;SDS011;46967;48.876;2.136;2023-01-20T00:47:35;17.40;;;10.25;;
61085;SDS011;46967;48.876;2.136;2023-01-20T00:50:00;16.80;;;9.57;;
61085;SDS011;46967;48.876;2.136;2023-01-20T00:52:25;18.10;;;9.45;;
61085;SDS011;46967;48.876;2.136;2023-01-20T00:54:51;17.45;;;10.18;;
61085;SDS011;46967;48.876;2.136;2023-01-20T00:57:16;14.90;;;9.02;;
61085;SDS011;46967;48.876;2.136;2023-01-20T00:59:41;13.38;;;8.80;;
61085;SDS011;46967;48.876;2.136;2023-01-20T01:02:07;13.48;;;8.68;;
61085;SDS011;46967;48.876;2.136;2023-01-20T01:04:32;13.85;;;9.35;;
61085;SDS011;46967;48.876;2.136;2023-01-20T01:06:57;15.95;;;10.10;;
61085;SDS011;46967;48.876;2.136;2023-01-20T01:09:23;14.65;;;9.25;;
61085;SDS011;46967;48.876;2.136;2023-01-20T01:11:48;16.15;;;9.93;;
61085;SDS011;46967;48.876;2.136;2023-01-20T01:14:13;15.68;;;10.13;;
61085;SDS011;46967;48.876;2.136;2023-01-20T01:16:40;14.82;;;9.57;;
61085;SDS011;46967;48.876;2.136;2023-01-20T01:19:06;17.85;;;8.85;;
61085;SDS011;46967;48.876;2.136;2023-01-20T01:21:31;15.20;;;9.35;;
61085;SDS011;46967;48.876;2.136;2023-01-20T01:23:56;17.20;;;10.50;;
61085;SDS011;46967;48.876;2.136;2023-01-20T01:26:22;17.00;;;10.32;;
61085;SDS011;46967;48.876;2.136;2023-01-20T01:28:47;17.55;;;11.00;;
61085;SDS011;46967;48.876;2.136;2023-01-20T01:31:13;19.05;;;10.82;;
61085;SDS011;46967;48.876;2.136;2023-01-20T01:33:40;14.85;;;10.00;;
61085;SDS011;46967;48.876;2.136;2023-01-20T01:36:06;16.15;;;10.13;;
61085;SDS011;46967;48.876;2.136;2023-01-20T01:38:36;15.98;;;9.95;;
61085;SDS011;46967;48.876;2.136;2023-01-20T01:41:01;15.75;;;10.32;;
61085;SDS011;46967;48.876;2.136;2023-01-20T01:43:30;20.02;;;11.23;;
61085;SDS011;46967;48.876;2.136;2023-01-20T01:45:58;18.50;;;11.45;;
61085;SDS011;46967;48.876;2.136;2023-01-20T01:48:37;19.58;;;10.88;;
61085;SDS011;46967;48.876;2.136;2023-01-20T01:54:12;15.30;;;9.27;;
61085;SDS011;46967;48.876;2.136;2023-01-20T01:56:41;15.48;;;9.82;;
61085;SDS011;46967;48.876;2.136;2023-01-20T01:59:08;13.68;;;8.35;;
61085;SDS011;46967;48.876;2.136;2023-01-20T02:01:37;16.95;;;9.70;;
61085;SDS011;46967;48.876;2.136;2023-01-20T02:04:07;15.45;;;8.95;;
61085;SDS011;46967;48.876;2.136;2023-01-20T02:06:37;14.13;;;8.43;;
61085;SDS011;46967;48.876;2.136;2023-01-20T02:09:04;16.60;;;9.38;;
61085;SDS011;46967;48.876;2.136;2023-01-20T02:11:30;16.55;;;8.30;;
61085;SDS011;46967;48.876;2.136;2023-01-20T02:14:01;16.40;;;8.18;;
61085;SDS011;46967;48.876;2.136;2023-01-20T02:16:32;14.30;;;8.00;;
61085;SDS011;46967;48.876;2.136;2023-01-20T02:26:58;11.93;;;7.20;;
61085;SDS011;46967;48.876;2.136;2023-01-20T02:29:45;14.00;;;7.15;;
61085;SDS011;46967;48.876;2.136;2023-01-20T02:37:27;11.80;;;6.50;;
61085;SDS011;46967;48.876;2.136;2023-01-20T02:42:21;12.18;;;5.72;;
61085;SDS011;46967;48.876;2.136;2023-01-20T02:50:04;12.27;;;6.30;;
61085;SDS011;46967;48.876;2.136;2023-01-20T02:52:34;12.70;;;6.55;;
61085;SDS011;46967;48.876;2.136;2023-01-20T02:55:05;11.27;;;6.68;;
61085;SDS011;46967;48.876;2.136;2023-01-20T02:57:44;11.15;;;6.13;;
61085;SDS011;46967;48.876;2.136;2023-01-20T03:00:14;8.73;;;5.53;;
61085;SDS011;46967;48.876;2.136;2023-01-20T03:02:45;9.85;;;5.47;;
61085;SDS011;46967;48.876;2.136;2023-01-20T03:05:18;11.70;;;6.18;;
61085;SDS011;46967;48.876;2.136;2023-01-20T03:07:48;11.23;;;6.15;;
61085;SDS011;46967;48.876;2.136;2023-01-20T03:10:15;10.65;;;5.85;;
61085;SDS011;46967;48.876;2.136;2023-01-20T03:12:56;10.82;;;5.70;;
61085;SDS011;46967;48.876;2.136;2023-01-20T03:15:39;6.78;;;4.43;;
61085;SDS011;46967;48.876;2.136;2023-01-20T03:18:28;7.85;;;5.05;;
61085;SDS011;46967;48.876;2.136;2023-01-20T03:20:57;9.90;;;5.20;;
61085;SDS011;46967;48.876;2.136;2023-01-20T03:23:24;9.48;;;6.10;;
61085;SDS011;46967;48.876;2.136;2023-01-20T03:25:52;12.53;;;6.20;;
61085;SDS011;46967;48.876;2.136;2023-01-20T03:28:18;9.00;;;5.45;;
61085;SDS011;46967;48.876;2.136;2023-01-20T03:30:43;7.53;;;5.03;;
61085;SDS011;46967;48.876;2.136;2023-01-20T03:33:08;9.40;;;5.30;;
61085;SDS011;46967;48.876;2.136;2023-01-20T03:35:35;10.60;;;5.22;;
61085;SDS011;46967;48.876;2.136;2023-01-20T03:38:01;10.85;;;6.35;;
61085;SDS011;46967;48.876;2.136;2023-01-20T03:40:28;9.70;;;5.97;;
61085;SDS011;46967;48.876;2.136;2023-01-20T03:43:09;10.63;;;5.78;;
61085;SDS011;46967;48.876;2.136;2023-01-20T03:45:45;14.32;;;6.22;;
61085;SDS011;46967;48.876;2.136;2023-01-20T03:51:26;13.48;;;6.80;;
61085;SDS011;46967;48.876;2.136;2023-01-20T03:54:00;12.90;;;5.85;;
61085;SDS011;46967;48.876;2.136;2023-01-20T03:56:41;11.95;;;6.57;;
61085;SDS011;46967;48.876;2.136;2023-01-20T03:59:13;10.93;;;6.30;;
61085;SDS011;46967;48.876;2.136;2023-01-20T04:01:42;10.25;;;5.75;;
61085;SDS011;46967;48.876;2.136;2023-01-20T04:04:10;11.65;;;6.80;;
61085;SDS011;46967;48.876;2.136;2023-01-20T04:06:40;12.77;;;6.40;;
61085;SDS011;46967;48.876;2.136;2023-01-20T04:09:08;12.18;;;6.55;;
61085;SDS011;46967;48.876;2.136;2023-01-20T04:14:03;12.18;;;6.28;;
61085;SDS011;46967;48.876;2.136;2023-01-20T04:16:28;13.93;;;7.10;;
61085;SDS011;46967;48.876;2.136;2023-01-20T04:18:53;14.25;;;7.20;;
61085;SDS011;46967;48.876;2.136;2023-01-20T04:21:31;16.73;;;7.22;;
61085;SDS011;46967;48.876;2.136;2023-01-20T04:26:30;13.27;;;7.03;;
61085;SDS011;46967;48.876;2.136;2023-01-20T04:28:56;14.98;;;7.60;;
61085;SDS011;46967;48.876;2.136;2023-01-20T04:31:21;14.95;;;7.40;;
61085;SDS011;46967;48.876;2.136;2023-01-20T04:33:46;18.63;;;8.50;;
61085;SDS011;46967;48.876;2.136;2023-01-20T04:36:12;21.90;;;10.68;;
61085;SDS011;46967;48.876;2.136;2023-01-20T04:38:37;21.65;;;10.65;;
61085;SDS011;46967;48.876;2.136;2023-01-20T04:41:02;24.67;;;12.52;;
61085;SDS011;46967;48.876;2.136;2023-01-20T04:43:28;20.83;;;9.95;;
61085;SDS011;46967;48.876;2.136;2023-01-20T04:45:53;20.40;;;9.43;;
61085;SDS011;46967;48.876;2.136;2023-01-20T04:48:18;17.55;;;7.70;;
61085;SDS011;46967;48.876;2.136;2023-01-20T04:50:44;14.75;;;8.18;;
61085;SDS011;46967;48.876;2.136;2023-01-20T04:53:10;15.25;;;7.80;;
61085;SDS011;46967;48.876;2.136;2023-01-20T04:55:37;15.50;;;7.85;;
61085;SDS011;46967;48.876;2.136;2023-01-20T04:58:03;14.98;;;7.63;;
61085;SDS011;46967;48.876;2.136;2023-01-20T05:00:28;14.65;;;7.95;;
61085;SDS011;46967;48.876;2.136;2023-01-20T05:02:56;13.57;;;7.68;;
61085;SDS011;46967;48.876;2.136;2023-01-20T05:05:22;15.27;;;7.82;;
61085;SDS011;46967;48.876;2.136;2023-01-20T05:07:50;13.35;;;7.50;;
61085;SDS011;46967;48.876;2.136;2023-01-20T05:10:17;17.52;;;7.95;;
61085;SDS011;46967;48.876;2.136;2023-01-20T05:12:42;13.75;;;7.60;;
61085;SDS011;46967;48.876;2.136;2023-01-20T05:15:08;16.20;;;8.65;;
61085;SDS011;46967;48.876;2.136;2023-01-20T05:17:33;17.85;;;9.93;;
61085;SDS011;46967;48.876;2.136;2023-01-20T05:19:58;16.83;;;9.15;;
61085;SDS011;46967;48.876;2.136;2023-01-20T05:22:24;15.27;;;8.32;;
61085;SDS011;46967;48.876;2.136;2023-01-20T05:24:49;17.95;;;8.65;;
61085;SDS011;46967;48.876;2.136;2023-01-20T05:27:14;17.33;;;8.40;;
61085;SDS011;46967;48.876;2.136;2023-01-20T05:29:40;17.05;;;8.50;;
61085;SDS011;46967;48.876;2.136;2023-01-20T05:32:05;16.13;;;8.82;;
61085;SDS011;46967;48.876;2.136;2023-01-20T05:34:30;13.77;;;7.30;;
61085;SDS011;46967;48.876;2.136;2023-01-20T05:36:56;16.55;;;7.88;;
61085;SDS011;46967;48.876;2.136;2023-01-20T05:39:21;14.02;;;7.55;;
61085;SDS011;46967;48.876;2.136;2023-01-20T05:41:47;13.75;;;7.60;;
61085;SDS011;46967;48.876;2.136;2023-01-20T05:44:13;13.68;;;7.72;;
61085;SDS011;46967;48.876;2.136;2023-01-20T05:46:39;14.52;;;7.47;;
61085;SDS011;46967;48.876;2.136;2023-01-20T05:49:05;14.32;;;7.43;;
61085;SDS011;46967;48.876;2.136;2023-01-20T05:51:30;15.00;;;7.78;;
61085;SDS011;46967;48.876;2.136;2023-01-20T05:53:56;13.60;;;8.20;;
61085;SDS011;46967;48.876;2.136;2023-01-20T05:56:21;13.50;;;6.93;;
61085;SDS011;46967;48.876;2.136;2023-01-20T05:58:46;14.48;;;7.90;;
61085;SDS011;46967;48.876;2.136;2023-01-20T06:01:12;12.13;;;7.20;;
61085;SDS011;46967;48.876;2.136;2023-01-20T06:03:38;14.10;;;7.50;;
61085;SDS011;46967;48.876;2.136;2023-01-20T06:06:04;13.15;;;7.90;;
61085;SDS011;46967;48.876;2.136;2023-01-20T06:08:32;15.88;;;7.25;;
61085;SDS011;46967;48.876;2.136;2023-01-20T06:10:58;11.45;;;6.35;;
61085;SDS011;46967;48.876;2.136;2023-01-20T06:13:24;15.00;;;7.00;;
61085;SDS011;46967;48.876;2.136;2023-01-20T06:15:52;14.18;;;7.32;;
61085;SDS011;46967;48.876;2.136;2023-01-20T06:18:21;14.13;;;7.57;;
61085;SDS011;46967;48.876;2.136;2023-01-20T06:20:47;15.97;;;8.23;;
61085;SDS011;46967;48.876;2.136;2023-01-20T06:23:13;14.35;;;8.02;;
61085;SDS011;46967;48.876;2.136;2023-01-20T06:25:38;16.73;;;9.02;;
61085;SDS011;46967;48.876;2.136;2023-01-20T06:28:03;12.82;;;7.50;;
61085;SDS011;46967;48.876;2.136;2023-01-20T06:30:29;17.13;;;8.93;;
61085;SDS011;46967;48.876;2.136;2023-01-20T06:32:54;16.63;;;9.10;;
61085;SDS011;46967;48.876;2.136;2023-01-20T06:35:21;15.60;;;9.52;;
61085;SDS011;46967;48.876;2.136;2023-01-20T06:37:47;14.75;;;8.77;;
61085;SDS011;46967;48.876;2.136;2023-01-20T06:40:13;18.25;;;9.02;;
61085;SDS011;46967;48.876;2.136;2023-01-20T06:42:40;14.45;;;8.73;;
61085;SDS011;46967;48.876;2.136;2023-01-20T06:45:05;17.17;;;8.55;;
61085;SDS011;46967;48.876;2.136;2023-01-20T06:47:31;17.80;;;8.80;;
61085;SDS011;46967;48.876;2.136;2023-01-20T06:50:12;15.57;;;7.50;;
61085;SDS011;46967;48.876;2.136;2023-01-20T06:52:37;14.85;;;8.05;;
61085;SDS011;46967;48.876;2.136;2023-01-20T06:55:02;13.80;;;7.88;;
61085;SDS011;46967;48.876;2.136;2023-01-20T06:57:28;14.05;;;7.75;;
61085;SDS011;46967;48.876;2.136;2023-01-20T06:59:53;13.73;;;8.10;;
61085;SDS011;46967;48.876;2.136;2023-01-20T07:02:19;14.65;;;8.40;;
61085;SDS011;46967;48.876;2.136;2023-01-20T07:04:44;15.07;;;7.93;;
61085;SDS011;46967;48.876;2.136;2023-01-20T07:07:10;14.00;;;7.55;;
61085;SDS011;46967;48.876;2.136;2023-01-20T07:09:36;12.18;;;7.50;;
61085;SDS011;46967;48.876;2.136;2023-01-20T07:12:02;15.75;;;8.30;;
61085;SDS011;46967;48.876;2.136;2023-01-20T07:14:27;13.80;;;7.40;;
61085;SDS011;46967;48.876;2.136;2023-01-20T07:16:52;14.38;;;7.55;;
61085;SDS011;46967;48.876;2.136;2023-01-20T07:19:18;13.68;;;7.95;;
61085;SDS011;46967;48.876;2.136;2023-01-20T07:21:43;17.33;;;8.05;;
61085;SDS011;46967;48.876;2.136;2023-01-20T07:24:08;13.93;;;7.93;;
61085;SDS011;46967;48.876;2.136;2023-01-20T07:26:34;15.95;;;8.50;;
61085;SDS011;46967;48.876;2.136;2023-01-20T07:29:00;19.75;;;7.72;;
61085;SDS011;46967;48.876;2.136;2023-01-20T07:31:26;16.38;;;8.00;;
61085;SDS011;46967;48.876;2.136;2023-01-20T07:33:53;15.73;;;7.45;;
61085;SDS011;46967;48.876;2.136;2023-01-20T07:36:19;13.65;;;7.55;;
61085;SDS011;46967;48.876;2.136;2023-01-20T07:38:46;13.75;;;8.43;;
61085;SDS011;46967;48.876;2.136;2023-01-20T07:41:14;14.93;;;8.00;;
61085;SDS011;46967;48.876;2.136;2023-01-20T07:43:42;13.48;;;7.05;;
61085;SDS011;46967;48.876;2.136;2023-01-20T07:46:08;12.75;;;6.97;;
61085;SDS011;46967;48.876;2.136;2023-01-20T07:48:34;13.30;;;6.72;;
61085;SDS011;46967;48.876;2.136;2023-01-20T07:51:03;12.43;;;6.72;;
61085;SDS011;46967;48.876;2.136;2023-01-20T07:53:40;14.32;;;7.40;;
61085;SDS011;46967;48.876;2.136;2023-01-20T07:58:37;13.85;;;7.05;;
61085;SDS011;46967;48.876;2.136;2023-01-20T08:01:10;13.32;;;6.82;;
61085;SDS011;46967;48.876;2.136;2023-01-20T08:03:38;13.98;;;7.97;;
61085;SDS011;46967;48.876;2.136;2023-01-20T08:06:04;10.75;;;6.25;;
61085;SDS011;46967;48.876;2.136;2023-01-20T08:08:31;13.85;;;7.90;;
61085;SDS011;46967;48.876;2.136;2023-01-20T08:10:57;13.43;;;6.90;;
61085;SDS011;46967;48.876;2.136;2023-01-20T08:13:23;12.30;;;6.50;;
61085;SDS011;46967;48.876;2.136;2023-01-20T08:15:48;9.73;;;5.85;;
61085;SDS011;46967;48.876;2.136;2023-01-20T08:18:13;12.13;;;5.60;;
61085;SDS011;46967;48.876;2.136;2023-01-20T08:20:39;11.57;;;6.20;;
61085;SDS011;46967;48.876;2.136;2023-01-20T08:23:05;14.80;;;6.03;;
61085;SDS011;46967;48.876;2.136;2023-01-20T08:25:30;13.68;;;5.18;;
61085;SDS011;46967;48.876;2.136;2023-01-20T08:27:56;11.23;;;5.85;;
61085;SDS011;46967;48.876;2.136;2023-01-20T08:30:21;8.90;;;4.97;;
61085;SDS011;46967;48.876;2.136;2023-01-20T08:32:47;9.20;;;5.53;;
61085;SDS011;46967;48.876;2.136;2023-01-20T08:35:12;12.95;;;6.18;;
61085;SDS011;46967;48.876;2.136;2023-01-20T08:37:37;11.50;;;5.82;;
61085;SDS011;46967;48.876;2.136;2023-01-20T08:40:06;12.82;;;6.10;;
61085;SDS011;46967;48.876;2.136;2023-01-20T08:42:33;11.82;;;6.05;;
61085;SDS011;46967;48.876;2.136;2023-01-20T08:44:59;9.70;;;5.78;;
61085;SDS011;46967;48.876;2.136;2023-01-20T08:47:24;10.15;;;5.55;;
61085;SDS011;46967;48.876;2.136;2023-01-20T08:49:51;11.68;;;5.85;;
61085;SDS011;46967;48.876;2.136;2023-01-20T08:52:17;10.38;;;5.68;;
61085;SDS011;46967;48.876;2.136;2023-01-20T08:54:42;11.30;;;5.85;;
61085;SDS011;46967;48.876;2.136;2023-01-20T08:57:07;12.80;;;5.53;;
61085;SDS011;46967;48.876;2.136;2023-01-20T08:59:32;11.13;;;5.57;;
61085;SDS011;46967;48.876;2.136;2023-01-20T09:01:58;10.75;;;5.50;;
61085;SDS011;46967;48.876;2.136;2023-01-20T09:04:23;10.25;;;4.68;;
61085;SDS011;46967;48.876;2.136;2023-01-20T09:06:48;8.88;;;5.22;;
61085;SDS011;46967;48.876;2.136;2023-01-20T09:09:15;9.95;;;5.13;;
61085;SDS011;46967;48.876;2.136;2023-01-20T09:11:42;9.55;;;4.20;;
61085;SDS011;46967;48.876;2.136;2023-01-20T09:14:15;9.35;;;4.50;;
61085;SDS011;46967;48.876;2.136;2023-01-20T09:16:41;13.52;;;4.43;;
61085;SDS011;46967;48.876;2.136;2023-01-20T09:19:06;6.35;;;3.40;;
61085;SDS011;46967;48.876;2.136;2023-01-20T09:21:32;8.55;;;3.90;;
61085;SDS011;46967;48.876;2.136;2023-01-20T09:23:57;8.45;;;3.70;;
61085;SDS011;46967;48.876;2.136;2023-01-20T09:26:22;6.20;;;3.50;;
61085;SDS011;46967;48.876;2.136;2023-01-20T09:28:48;4.22;;;3.05;;
61085;SDS011;46967;48.876;2.136;2023-01-20T09:31:13;7.18;;;3.38;;
61085;SDS011;46967;48.876;2.136;2023-01-20T09:33:39;4.72;;;2.40;;
61085;SDS011;46967;48.876;2.136;2023-01-20T09:36:06;9.35;;;2.65;;
61085;SDS011;46967;48.876;2.136;2023-01-20T09:38:33;4.72;;;2.28;;
61085;SDS011;46967;48.876;2.136;2023-01-20T09:55:29;6.63;;;2.58;;
61085;SDS011;46967;48.876;2.136;2023-01-20T10:11:39;4.63;;;2.65;;
61085;SDS011;46967;48.876;2.136;2023-01-20T10:19:11;8.43;;;2.88;;
61085;SDS011;46967;48.876;2.136;2023-01-20T10:21:49;8.43;;;2.83;;
61085;SDS011;46967;48.876;2.136;2023-01-20T10:24:27;6.47;;;2.40;;
61085;SDS011;46967;48.876;2.136;2023-01-20T10:27:00;6.90;;;2.75;;
61085;SDS011;46967;48.876;2.136;2023-01-20T10:29:28;6.43;;;2.78;;
61085;SDS011;46967;48.876;2.136;2023-01-20T10:31:59;6.40;;;2.83;;
61085;SDS011;46967;48.876;2.136;2023-01-20T10:34:37;8.10;;;3.45;;
61085;SDS011;46967;48.876;2.136;2023-01-20T10:37:09;9.23;;;2.83;;
61085;SDS011;46967;48.876;2.136;2023-01-20T10:42:18;7.85;;;3.08;;
61085;SDS011;46967;48.876;2.136;2023-01-20T10:44:45;12.90;;;2.83;;
61085;SDS011;46967;48.876;2.136;2023-01-20T10:52:45;6.20;;;2.95;;
61085;SDS011;46967;48.876;2.136;2023-01-20T10:55:20;5.97;;;2.78;;
61085;SDS011;46967;48.876;2.136;2023-01-20T11:00:53;7.05;;;2.88;;
61085;SDS011;46967;48.876;2.136;2023-01-20T11:03:20;7.38;;;3.10;;
61085;SDS011;46967;48.876;2.136;2023-01-20T11:05:47;6.47;;;3.05;;
61085;SDS011;46967;48.876;2.136;2023-01-20T11:08:48;5.80;;;2.50;;
61085;SDS011;46967;48.876;2.136;2023-01-20T11:11:10;8.35;;;2.72;;
61085;SDS011;46967;48.876;2.136;2023-01-20T11:13:38;5.88;;;2.30;;
61085;SDS011;46967;48.876;2.136;2023-01-20T11:16:15;5.30;;;2.58;;
61085;SDS011;46967;48.876;2.136;2023-01-20T11:19:00;6.43;;;2.35;;
61085;SDS011;46967;48.876;2.136;2023-01-20T11:21:28;9.52;;;3.13;;
61085;SDS011;46967;48.876;2.136;2023-01-20T11:23:56;5.80;;;2.60;;
61085;SDS011;46967;48.876;2.136;2023-01-20T11:26:23;9.57;;;3.60;;
61085;SDS011;46967;48.876;2.136;2023-01-20T11:31:38;7.55;;;2.33;;
61085;SDS011;46967;48.876;2.136;2023-01-20T11:39:36;4.65;;;2.10;;
61085;SDS011;46967;48.876;2.136;2023-01-20T11:42:17;3.88;;;2.30;;
61085;SDS011;46967;48.876;2.136;2023-01-20T11:44:54;8.60;;;2.30;;
61085;SDS011;46967;48.876;2.136;2023-01-20T11:47:33;5.03;;;2.20;;
61085;SDS011;46967;48.876;2.136;2023-01-20T11:52:39;9.40;;;2.40;;
61085;SDS011;46967;48.876;2.136;2023-01-20T11:57:36;4.55;;;2.35;;
61085;SDS011;46967;48.876;2.136;2023-01-20T12:02:42;7.38;;;2.72;;
61085;SDS011;46967;48.876;2.136;2023-01-20T12:05:16;9.82;;;2.30;;
61085;SDS011;46967;48.876;2.136;2023-01-20T12:07:51;4.22;;;1.88;;
61085;SDS011;46967;48.876;2.136;2023-01-20T12:15:23;4.55;;;2.28;;
61085;SDS011;46967;48.876;2.136;2023-01-20T12:17:55;6.63;;;2.60;;
61085;SDS011;46967;48.876;2.136;2023-01-20T12:20:29;7.60;;;2.58;;
61085;SDS011;46967;48.876;2.136;2023-01-20T12:26:13;7.32;;;2.92;;
61085;SDS011;46967;48.876;2.136;2023-01-20T12:28:56;4.82;;;2.35;;
61085;SDS011;46967;48.876;2.136;2023-01-20T12:31:24;9.98;;;2.95;;
61085;SDS011;46967;48.876;2.136;2023-01-20T12:33:57;3.67;;;2.22;;
61085;SDS011;46967;48.876;2.136;2023-01-20T12:48:19;3.55;;;1.98;;
61085;SDS011;46967;48.876;2.136;2023-01-20T13:01:22;4.88;;;2.10;;
61085;SDS011;46967;48.876;2.136;2023-01-20T13:10:41;8.80;;;1.90;;
61085;SDS011;46967;48.876;2.136;2023-01-20T13:16:48;5.85;;;1.85;;
61085;SDS011;46967;48.876;2.136;2023-01-20T13:19:07;3.08;;;1.90;;
61085;SDS011;46967;48.876;2.136;2023-01-20T13:21:38;6.88;;;1.70;;
61085;SDS011;46967;48.876;2.136;2023-01-20T13:24:05;3.60;;;1.70;;
61085;SDS011;46967;48.876;2.136;2023-01-20T13:26:43;5.03;;;1.95;;
61085;SDS011;46967;48.876;2.136;2023-01-20T13:29:19;5.25;;;1.70;;
61085;SDS011;46967;48.876;2.136;2023-01-20T13:32:24;5.00;;;1.85;;
61085;SDS011;46967;48.876;2.136;2023-01-20T13:34:49;4.50;;;2.08;;
61085;SDS011;46967;48.876;2.136;2023-01-20T13:39:45;5.97;;;1.50;;
61085;SDS011;46967;48.876;2.136;2023-01-20T13:42:28;6.88;;;1.80;;
61085;SDS011;46967;48.876;2.136;2023-01-20T13:58:14;6.80;;;1.63;;
61085;SDS011;46967;48.876;2.136;2023-01-20T14:00:39;5.18;;;1.88;;
61085;SDS011;46967;48.876;2.136;2023-01-20T14:05:49;9.52;;;2.17;;
61085;SDS011;46967;48.876;2.136;2023-01-20T14:08:20;3.30;;;1.30;;
61085;SDS011;46967;48.876;2.136;2023-01-20T14:10:47;6.68;;;1.98;;
61085;SDS011;46967;48.876;2.136;2023-01-20T14:15:51;4.72;;;1.40;;
61085;SDS011;46967;48.876;2.136;2023-01-20T14:18:22;5.97;;;1.77;;
61085;SDS011;46967;48.876;2.136;2023-01-20T14:20:57;6.00;;;1.55;;
61085;SDS011;46967;48.876;2.136;2023-01-20T14:23:32;3.83;;;1.40;;
61085;SDS011;46967;48.876;2.136;2023-01-20T14:28:27;5.15;;;1.52;;
61085;SDS011;46967;48.876;2.136;2023-01-20T14:33:55;3.65;;;1.55;;
61085;SDS011;46967;48.876;2.136;2023-01-20T14:36:27;4.70;;;1.30;;
61085;SDS011;46967;48.876;2.136;2023-01-20T14:38:56;6.68;;;1.40;;
61085;SDS011;46967;48.876;2.136;2023-01-20T14:41:31;6.68;;;1.60;;
61085;SDS011;46967;48.876;2.136;2023-01-20T14:43:59;3.80;;;1.40;;
61085;SDS011;46967;48.876;2.136;2023-01-20T14:46:26;7.97;;;1.70;;
61085;SDS011;46967;48.876;2.136;2023-01-20T14:48:53;8.60;;;1.60;;
61085;SDS011;46967;48.876;2.136;2023-01-20T14:51:19;6.20;;;1.90;;
61085;SDS011;46967;48.876;2.136;2023-01-20T14:53:46;6.93;;;1.65;;
61085;SDS011;46967;48.876;2.136;2023-01-20T14:56:16;5.53;;;1.70;;
61085;SDS011;46967;48.876;2.136;2023-01-20T14:58:44;4.50;;;1.52;;
61085;SDS011;46967;48.876;2.136;2023-01-20T15:01:17;4.32;;;1.38;;
61085;SDS011;46967;48.876;2.136;2023-01-20T15:03:56;7.22;;;1.70;;
61085;SDS011;46967;48.876;2.136;2023-01-20T15:06:23;6.03;;;1.88;;
61085;SDS011;46967;48.876;2.136;2023-01-20T15:08:50;7.30;;;1.70;;
61085;SDS011;46967;48.876;2.136;2023-01-20T15:11:18;3.35;;;1.40;;
61085;SDS011;46967;48.876;2.136;2023-01-20T15:16:27;7.10;;;1.67;;
61085;SDS011;46967;48.876;2.136;2023-01-20T15:21:37;5.20;;;1.55;;
61085;SDS011;46967;48.876;2.136;2023-01-20T15:24:11;3.67;;;1.42;;
61085;SDS011;46967;48.876;2.136;2023-01-20T15:26:36;4.35;;;1.35;;
61085;SDS011;46967;48.876;2.136;2023-01-20T15:29:16;8.85;;;1.42;;
61085;SDS011;46967;48.876;2.136;2023-01-20T15:31:47;7.00;;;1.70;;
61085;SDS011;46967;48.876;2.136;2023-01-20T15:34:12;4.55;;;1.58;;
61085;SDS011;46967;48.876;2.136;2023-01-20T15:36:38;6.78;;;1.70;;
61085;SDS011;46967;48.876;2.136;2023-01-20T15:39:10;6.28;;;1.50;;
61085;SDS011;46967;48.876;2.136;2023-01-20T15:41:36;5.70;;;1.52;;
61085;SDS011;46967;48.876;2.136;2023-01-20T15:44:01;4.22;;;1.50;;
61085;SDS011;46967;48.876;2.136;2023-01-20T15:46:27;10.65;;;2.20;;
61085;SDS011;46967;48.876;2.136;2023-01-20T15:48:52;6.35;;;1.67;;
61085;SDS011;46967;48.876;2.136;2023-01-20T15:51:18;7.35;;;1.80;;
61085;SDS011;46967;48.876;2.136;2023-01-20T15:53:44;5.07;;;1.30;;
61085;SDS011;46967;48.876;2.136;2023-01-20T15:56:27;2.58;;;1.67;;
61085;SDS011;46967;48.876;2.136;2023-01-20T15:58:53;6.93;;;1.85;;
61085;SDS011;46967;48.876;2.136;2023-01-20T16:01:19;4.38;;;1.67;;
61085;SDS011;46967;48.876;2.136;2023-01-20T16:03:50;5.18;;;1.75;;
61085;SDS011;46967;48.876;2.136;2023-01-20T16:06:17;2.85;;;1.48;;
61085;SDS011;46967;48.876;2.136;2023-01-20T16:08:45;6.78;;;2.22;;
61085;SDS011;46967;48.876;2.136;2023-01-20T16:11:12;8.93;;;2.33;;
61085;SDS011;46967;48.876;2.136;2023-01-20T16:13:38;5.38;;;1.65;;
61085;SDS011;46967;48.876;2.136;2023-01-20T16:16:08;4.63;;;1.80;;
61085;SDS011;46967;48.876;2.136;2023-01-20T16:18:41;7.60;;;2.45;;
61085;SDS011;46967;48.876;2.136;2023-01-20T16:21:11;8.00;;;2.30;;
61085;SDS011;46967;48.876;2.136;2023-01-20T16:23:40;5.57;;;1.90;;
61085;SDS011;46967;48.876;2.136;2023-01-20T16:26:15;5.97;;;1.90;;
61085;SDS011;46967;48.876;2.136;2023-01-20T16:28:40;4.97;;;2.00;;
61085;SDS011;46967;48.876;2.136;2023-01-20T16:31:06;4.90;;;2.25;;
61085;SDS011;46967;48.876;2.136;2023-01-20T16:33:31;6.15;;;1.83;;
61085;SDS011;46967;48.876;2.136;2023-01-20T16:35:56;4.10;;;1.73;;
61085;SDS011;46967;48.876;2.136;2023-01-20T16:38:22;5.90;;;2.25;;
61085;SDS011;46967;48.876;2.136;2023-01-20T16:41:31;8.75;;;2.15;;
61085;SDS011;46967;48.876;2.136;2023-01-20T16:43:43;4.10;;;1.73;;
61085;SDS011;46967;48.876;2.136;2023-01-20T16:46:12;6.10;;;2.05;;
61085;SDS011;46967;48.876;2.136;2023-01-20T16:48:39;10.93;;;2.50;;
61085;SDS011;46967;48.876;2.136;2023-01-20T16:51:05;8.88;;;2.88;;
61085;SDS011;46967;48.876;2.136;2023-01-20T16:53:31;6.32;;;2.30;;
61085;SDS011;46967;48.876;2.136;2023-01-20T16:55:56;6.85;;;2.13;;
61085;SDS011;46967;48.876;2.136;2023-01-20T16:58:22;5.45;;;2.10;;
61085;SDS011;46967;48.876;2.136;2023-01-20T17:00:47;5.15;;;2.00;;
61085;SDS011;46967;48.876;2.136;2023-01-20T17:03:12;10.50;;;2.90;;
61085;SDS011;46967;48.876;2.136;2023-01-20T17:05:38;7.25;;;3.88;;
61085;SDS011;46967;48.876;2.136;2023-01-20T17:08:03;9.20;;;3.40;;
61085;SDS011;46967;48.876;2.136;2023-01-20T17:10:29;10.07;;;3.65;;
61085;SDS011;46967;48.876;2.136;2023-01-20T17:12:56;5.65;;;3.30;;
61085;SDS011;46967;48.876;2.136;2023-01-20T17:15:22;8.50;;;3.30;;
61085;SDS011;46967;48.876;2.136;2023-01-20T17:17:51;6.72;;;3.50;;
61085;SDS011;46967;48.876;2.136;2023-01-20T17:20:19;7.82;;;3.17;;
61085;SDS011;46967;48.876;2.136;2023-01-20T17:22:45;8.60;;;3.08;;
61085;SDS011;46967;48.876;2.136;2023-01-20T17:25:11;5.82;;;3.20;;
61085;SDS011;46967;48.876;2.136;2023-01-20T17:27:37;8.57;;;3.88;;
61085;SDS011;46967;48.876;2.136;2023-01-20T17:30:03;7.55;;;3.13;;
61085;SDS011;46967;48.876;2.136;2023-01-20T17:32:32;9.05;;;3.50;;
61085;SDS011;46967;48.876;2.136;2023-01-20T17:34:58;8.57;;;3.80;;
61085;SDS011;46967;48.876;2.136;2023-01-20T17:37:23;12.38;;;4.60;;